createdAt,value
2019-03-31T00:00:22.655Z,85.66
2019-03-31T00:01:22.830Z,85.37
2019-03-31T00:02:23.012Z,85.75
2019-03-31T00:03:23.187Z,85.94
2019-03-31T00:04:23.359Z,85.28
2019-03-31T00:05:24.180Z,85.66
2019-03-31T00:06:23.728Z,86.32
2019-03-31T00:07:23.910Z,86.70
2019-03-31T00:08:24.079Z,86.22
2019-03-31T00:09:24.252Z,86.38
2019-03-31T00:10:24.433Z,86.47
2019-03-31T00:11:24.601Z,86.47
2019-03-31T00:12:24.770Z,86.76
2019-03-31T00:13:24.947Z,86.76
2019-03-31T00:14:25.122Z,86.80
2019-03-31T00:15:25.297Z,87.27
2019-03-31T00:16:25.467Z,87.04
2019-03-31T00:17:25.642Z,87.13
2019-03-31T00:18:25.812Z,87.61
2019-03-31T00:19:25.989Z,87.42
2019-03-31T00:20:26.164Z,87.52
2019-03-31T00:21:26.339Z,87.80
2019-03-31T00:22:27.185Z,87.42
2019-03-31T00:23:26.732Z,87.61
2019-03-31T00:24:26.906Z,87.23
2019-03-31T00:25:27.095Z,87.23
2019-03-31T00:26:27.254Z,86.99
2019-03-31T00:27:27.427Z,86.99
2019-03-31T00:28:27.602Z,87.65
2019-03-31T00:29:27.777Z,86.85
2019-03-31T00:30:27.952Z,86.51
2019-03-31T00:31:28.130Z,87.04
2019-03-31T00:32:28.302Z,85.99
2019-03-31T00:33:28.478Z,86.85
2019-03-31T00:34:28.649Z,86.28
2019-03-31T00:35:28.823Z,86.66
2019-03-31T00:36:28.999Z,86.47
2019-03-31T00:37:29.169Z,86.28
2019-03-31T00:38:29.342Z,86.85
2019-03-31T00:39:29.511Z,86.85
2019-03-31T00:40:29.684Z,86.57
2019-03-31T00:41:29.859Z,87.04
2019-03-31T00:42:30.031Z,86.76
2019-03-31T00:43:30.207Z,86.66
2019-03-31T00:44:30.378Z,86.85
2019-03-31T00:45:30.551Z,87.13
2019-03-31T00:46:30.728Z,87.23
2019-03-31T00:47:30.899Z,87.13
2019-03-31T00:48:31.079Z,86.85
2019-03-31T00:49:31.257Z,87.42
2019-03-31T00:50:31.419Z,87.23
2019-03-31T00:51:31.595Z,87.04
2019-03-31T00:52:31.764Z,87.61
2019-03-31T00:53:31.949Z,87.85
2019-03-31T00:54:32.117Z,87.71
2019-03-31T00:55:32.290Z,87.85
2019-03-31T00:56:32.468Z,87.66
2019-03-31T00:57:32.633Z,88.33
2019-03-31T00:58:32.808Z,88.28
2019-03-31T00:59:32.982Z,88.75
2019-03-31T01:00:33.155Z,89.04
2019-03-31T01:01:36.749Z,89.28
2019-03-31T01:02:33.507Z,88.94
2019-03-31T01:03:33.677Z,89.42
2019-03-31T01:04:33.851Z,88.94
2019-03-31T01:05:34.027Z,88.33
2019-03-31T01:06:34.200Z,88.28
2019-03-31T01:07:34.373Z,88.56
2019-03-31T01:08:34.549Z,88.56
2019-03-31T01:09:34.720Z,87.90
2019-03-31T01:10:34.905Z,87.95
2019-03-31T01:11:35.066Z,87.85
2019-03-31T01:12:35.245Z,87.85
2019-03-31T01:13:35.420Z,87.95
2019-03-31T01:14:35.588Z,88.42
2019-03-31T01:15:35.761Z,88.33
2019-03-31T01:16:35.938Z,88.52
2019-03-31T01:17:36.123Z,88.33
2019-03-31T01:18:36.283Z,88.33
2019-03-31T01:19:36.457Z,88.42
2019-03-31T01:20:36.682Z,88.71
2019-03-31T01:21:36.854Z,88.80
2019-03-31T01:22:36.981Z,88.71
2019-03-31T01:23:37.154Z,88.52
2019-03-31T01:24:37.328Z,88.61
2019-03-31T01:25:37.500Z,89.09
2019-03-31T01:26:37.674Z,88.61
2019-03-31T01:27:37.849Z,89.18
2019-03-31T01:28:38.696Z,88.90
2019-03-31T01:29:38.250Z,89.18
2019-03-31T01:30:38.420Z,89.09
2019-03-31T01:31:49.703Z,89.18
2019-03-31T01:32:38.767Z,89.75
2019-03-31T01:33:38.942Z,89.28
2019-03-31T01:34:39.116Z,89.09
2019-03-31T01:35:39.294Z,88.80
2019-03-31T01:36:39.462Z,88.90
2019-03-31T01:37:39.645Z,88.33
2019-03-31T01:38:39.808Z,88.71
2019-03-31T01:39:40.011Z,88.80
2019-03-31T01:40:40.162Z,88.61
2019-03-31T01:41:40.319Z,89.28
2019-03-31T01:42:40.489Z,89.18
2019-03-31T01:43:40.660Z,89.09
2019-03-31T01:44:40.833Z,89.66
2019-03-31T01:45:41.012Z,89.75
2019-03-31T01:46:41.184Z,89.00
2019-03-31T01:47:41.353Z,89.18
2019-03-31T01:48:41.541Z,89.37
2019-03-31T01:49:41.702Z,90.04
2019-03-31T01:50:41.862Z,90.04
2019-03-31T01:51:42.059Z,89.47
2019-03-31T01:52:42.227Z,90.23
2019-03-31T01:53:42.406Z,90.19
2019-03-31T01:54:42.574Z,90.19
2019-03-31T01:55:42.752Z,90.28
2019-03-31T01:56:44.773Z,90.00
2019-03-31T01:57:43.100Z,90.28
2019-03-31T01:58:43.271Z,90.19
2019-03-31T01:59:43.452Z,90.66
2019-03-31T02:00:43.621Z,90.66
2019-03-31T02:01:43.793Z,90.56
2019-03-31T02:02:43.962Z,90.56
2019-03-31T02:03:44.141Z,90.56
2019-03-31T02:04:44.311Z,90.85
2019-03-31T02:05:44.486Z,91.23
2019-03-31T02:06:44.663Z,91.04
2019-03-31T02:07:44.833Z,91.13
2019-03-31T02:08:45.017Z,91.33
2019-03-31T02:09:45.181Z,91.33
2019-03-31T02:12:25.690Z,91.42
2019-03-31T02:13:25.864Z,91.42
2019-03-31T02:14:26.035Z,90.94
2019-03-31T02:15:26.208Z,91.04
2019-03-31T02:16:26.383Z,91.13
2019-03-31T02:17:26.559Z,91.33
2019-03-31T02:18:26.740Z,91.42
2019-03-31T02:19:26.904Z,91.80
2019-03-31T02:20:27.077Z,93.46
2019-03-31T02:21:27.260Z,94.42
2019-03-31T02:22:27.425Z,94.70
2019-03-31T02:23:27.597Z,94.37
2019-03-31T02:24:27.776Z,94.37
2019-03-31T02:25:27.956Z,94.74
2019-03-31T02:26:28.121Z,94.27
2019-03-31T02:27:28.290Z,94.46
2019-03-31T02:28:28.465Z,94.56
2019-03-31T02:29:28.640Z,94.56
2019-03-31T02:30:28.818Z,94.84
2019-03-31T02:31:29.000Z,95.12
2019-03-31T02:32:29.168Z,94.65
2019-03-31T02:33:29.341Z,93.41
2019-03-31T02:34:29.520Z,93.27
2019-03-31T02:35:29.694Z,94.89
2019-03-31T02:36:29.864Z,96.22
2019-03-31T02:37:30.043Z,95.94
2019-03-31T02:38:30.222Z,96.12
2019-03-31T02:39:30.389Z,95.36
2019-03-31T02:40:30.565Z,94.60
2019-03-31T02:41:30.841Z,93.56
2019-03-31T02:42:30.914Z,93.75
2019-03-31T02:43:31.080Z,93.08
2019-03-31T02:44:31.249Z,92.99
2019-03-31T02:45:31.431Z,93.18
2019-03-31T02:46:31.606Z,93.08
2019-03-31T02:47:31.782Z,93.37
2019-03-31T02:48:31.961Z,93.65
2019-03-31T02:49:32.129Z,93.84
2019-03-31T02:50:32.304Z,93.37
2019-03-31T02:51:32.480Z,93.94
2019-03-31T02:52:32.649Z,93.65
2019-03-31T02:53:32.822Z,93.84
2019-03-31T02:54:32.999Z,94.13
2019-03-31T02:55:33.164Z,94.56
2019-03-31T02:56:33.355Z,94.56
2019-03-31T02:57:33.529Z,94.98
2019-03-31T02:58:33.689Z,95.08
2019-03-31T02:59:33.860Z,95.65
2019-03-31T03:00:35.431Z,95.46
2019-03-31T03:01:34.231Z,95.46
2019-03-31T03:02:42.015Z,94.79
2019-03-31T03:03:34.585Z,94.42
2019-03-31T03:04:34.771Z,94.42
2019-03-31T03:05:34.935Z,93.84
2019-03-31T03:06:35.107Z,93.46
2019-03-31T03:07:35.283Z,93.46
2019-03-31T03:08:35.453Z,93.75
2019-03-31T03:09:35.626Z,93.65
2019-03-31T03:10:35.801Z,93.65
2019-03-31T03:11:35.971Z,93.56
2019-03-31T03:12:36.146Z,93.56
2019-03-31T03:13:36.317Z,93.65
2019-03-31T03:14:36.493Z,93.75
2019-03-31T03:15:37.282Z,93.56
2019-03-31T03:16:36.824Z,93.46
2019-03-31T03:17:37.005Z,93.65
2019-03-31T03:18:37.176Z,93.94
2019-03-31T03:19:37.379Z,93.75
2019-03-31T03:20:37.519Z,93.56
2019-03-31T03:21:37.692Z,93.46
2019-03-31T03:22:37.875Z,93.41
2019-03-31T03:23:38.056Z,93.41
2019-03-31T03:24:38.227Z,93.60
2019-03-31T03:25:54.549Z,93.99
2019-03-31T03:26:38.575Z,93.32
2019-03-31T03:27:38.746Z,93.51
2019-03-31T03:28:38.915Z,93.70
2019-03-31T03:29:39.108Z,94.42
2019-03-31T03:30:39.459Z,94.13
2019-03-31T03:31:39.444Z,93.89
2019-03-31T03:32:39.621Z,93.41
2019-03-31T03:33:39.802Z,93.51
2019-03-31T03:35:40.129Z,93.60
2019-03-31T03:36:43.306Z,93.51
2019-03-31T03:37:40.476Z,94.08
2019-03-31T03:38:40.649Z,94.27
2019-03-31T03:39:40.822Z,94.46
2019-03-31T03:40:40.997Z,94.56
2019-03-31T03:41:41.179Z,93.89
2019-03-31T03:42:41.398Z,93.80
2019-03-31T03:43:55.263Z,93.80
2019-03-31T03:44:41.737Z,94.56
2019-03-31T03:45:41.911Z,94.46
2019-03-31T03:46:42.089Z,94.37
2019-03-31T03:47:42.262Z,94.65
2019-03-31T03:48:42.452Z,94.18
2019-03-31T03:49:42.603Z,94.74
2019-03-31T03:50:42.780Z,94.74
2019-03-31T03:51:42.956Z,94.37
2019-03-31T03:52:43.136Z,94.56
2019-03-31T03:53:43.298Z,94.74
2019-03-31T03:54:43.474Z,94.46
2019-03-31T03:55:43.651Z,94.56
2019-03-31T03:56:43.820Z,94.56
2019-03-31T03:57:43.997Z,94.56
2019-03-31T03:58:44.164Z,94.74
2019-03-31T03:59:44.341Z,94.37
2019-03-31T04:00:44.518Z,94.46
2019-03-31T04:01:44.696Z,94.08
2019-03-31T04:02:44.872Z,93.41
2019-03-31T04:03:45.029Z,93.99
2019-03-31T04:04:45.203Z,94.46
2019-03-31T04:05:45.380Z,94.65
2019-03-31T04:06:45.555Z,94.37
2019-03-31T04:07:45.726Z,94.27
2019-03-31T04:08:45.899Z,94.37
2019-03-31T04:09:46.077Z,94.60
2019-03-31T04:10:46.261Z,95.36
2019-03-31T04:11:46.420Z,96.03
2019-03-31T04:12:46.592Z,96.97
2019-03-31T04:13:46.771Z,97.83
2019-03-31T04:14:46.943Z,98.02
2019-03-31T04:15:47.109Z,97.17
2019-03-31T04:16:47.283Z,97.64
2019-03-31T04:17:47.456Z,97.36
2019-03-31T04:18:47.638Z,97.17
2019-03-31T04:19:47.802Z,97.26
2019-03-31T04:20:47.975Z,97.26
2019-03-31T04:21:48.153Z,97.45
2019-03-31T04:22:48.324Z,97.55
2019-03-31T04:23:48.494Z,98.02
2019-03-31T04:24:48.675Z,98.44
2019-03-31T04:25:48.832Z,98.82
2019-03-31T04:26:49.005Z,98.59
2019-03-31T04:27:49.186Z,98.49
2019-03-31T04:28:49.368Z,98.59
2019-03-31T04:29:49.531Z,98.11
2019-03-31T04:30:49.697Z,97.74
2019-03-31T04:31:49.864Z,98.11
2019-03-31T04:32:50.042Z,98.11
2019-03-31T04:33:52.766Z,97.92
2019-03-31T04:34:50.396Z,97.07
2019-03-31T04:35:50.562Z,96.97
2019-03-31T04:36:50.739Z,97.17
2019-03-31T04:37:50.909Z,96.50
2019-03-31T04:38:51.081Z,96.78
2019-03-31T04:39:51.259Z,96.31
2019-03-31T04:40:51.441Z,96.22
2019-03-31T04:41:51.623Z,96.22
2019-03-31T04:42:51.786Z,96.03
2019-03-31T04:43:51.959Z,95.74
2019-03-31T04:44:52.182Z,96.59
2019-03-31T04:45:52.303Z,97.31
2019-03-31T04:46:52.480Z,97.78
2019-03-31T04:47:52.650Z,97.88
2019-03-31T04:48:52.817Z,98.35
2019-03-31T04:49:52.988Z,98.82
2019-03-31T04:50:53.155Z,97.97
2019-03-31T04:51:53.339Z,98.73
2019-03-31T04:52:53.505Z,98.73
2019-03-31T04:53:53.683Z,99.11
2019-03-31T04:54:53.857Z,99.20
2019-03-31T04:55:54.022Z,99.49
2019-03-31T04:56:54.195Z,99.68
2019-03-31T04:57:54.369Z,99.39
2019-03-31T04:58:54.539Z,99.77
2019-03-31T04:59:54.719Z,99.99
2019-03-31T05:00:54.892Z,99.99
2019-03-31T05:01:55.066Z,99.99
2019-03-31T05:02:55.242Z,99.99
2019-03-31T05:04:04.658Z,99.99
2019-03-31T05:04:55.594Z,99.99
2019-03-31T05:05:55.762Z,99.99
2019-03-31T05:06:55.938Z,99.99
2019-03-31T05:07:56.106Z,99.99
2019-03-31T05:08:56.288Z,99.99
2019-03-31T05:09:56.458Z,99.58
2019-03-31T05:10:56.624Z,99.96
2019-03-31T05:11:56.792Z,99.77
2019-03-31T05:12:57.964Z,99.96
2019-03-31T05:13:57.137Z,99.58
2019-03-31T05:14:57.310Z,99.87
2019-03-31T05:15:57.481Z,99.39
2019-03-31T05:16:57.655Z,99.20
2019-03-31T05:17:57.828Z,99.01
2019-03-31T05:18:57.995Z,99.30
2019-03-31T05:19:58.176Z,99.39
2019-03-31T05:20:58.348Z,98.92
2019-03-31T05:21:58.509Z,99.01
2019-03-31T05:22:58.699Z,98.73
2019-03-31T05:23:58.869Z,98.92
2019-03-31T05:24:59.040Z,99.01
2019-03-31T05:25:59.212Z,98.97
2019-03-31T05:26:59.388Z,98.87
2019-03-31T05:27:59.568Z,97.92
2019-03-31T05:28:59.731Z,97.45
2019-03-31T05:29:59.905Z,97.26
2019-03-31T05:31:00.081Z,97.07
2019-03-31T05:32:00.256Z,96.88
2019-03-31T05:33:00.425Z,96.59
2019-03-31T05:34:00.594Z,96.31
2019-03-31T05:35:00.766Z,96.12
2019-03-31T05:36:00.941Z,95.65
2019-03-31T05:37:01.122Z,95.55
2019-03-31T05:38:01.286Z,95.36
2019-03-31T05:39:01.458Z,95.36
2019-03-31T05:40:01.635Z,95.55
2019-03-31T05:41:01.805Z,95.17
2019-03-31T05:42:01.977Z,95.65
2019-03-31T05:43:02.152Z,94.74
2019-03-31T05:44:05.954Z,94.56
2019-03-31T05:45:02.484Z,94.27
2019-03-31T05:46:02.660Z,93.70
2019-03-31T05:49:47.639Z,93.70
2019-03-31T05:50:47.801Z,93.70
2019-03-31T05:51:47.976Z,93.70
2019-03-31T05:52:48.154Z,94.08
2019-03-31T05:53:48.327Z,93.60
2019-03-31T05:54:48.502Z,93.51
2019-03-31T05:55:48.673Z,93.51
2019-03-31T05:56:48.844Z,93.04
2019-03-31T05:57:49.018Z,92.18
2019-03-31T05:58:49.214Z,91.19
2019-03-31T05:59:49.367Z,90.61
2019-03-31T06:00:49.545Z,89.71
2019-03-31T06:01:49.757Z,88.67
2019-03-31T06:02:49.898Z,87.71
2019-03-31T06:03:50.072Z,86.99
2019-03-31T06:04:50.248Z,86.24
2019-03-31T06:05:50.432Z,84.91
2019-03-31T06:06:50.595Z,84.28
2019-03-31T06:07:50.779Z,83.23
2019-03-31T06:08:50.947Z,82.28
2019-03-31T06:09:51.121Z,81.71
2019-03-31T06:10:51.382Z,81.90
2019-03-31T06:11:53.435Z,81.52
2019-03-31T06:12:51.654Z,81.33
2019-03-31T06:13:51.820Z,80.99
2019-03-31T06:14:51.996Z,79.66
2019-03-31T06:15:52.170Z,79.19
2019-03-31T06:16:52.348Z,79.22
2019-03-31T06:17:52.527Z,78.46
2019-03-31T06:18:52.706Z,77.42
2019-03-31T06:19:52.890Z,76.37
2019-03-31T06:20:53.064Z,76.79
2019-03-31T06:21:53.237Z,76.65
2019-03-31T06:22:53.418Z,75.99
2019-03-31T06:23:53.601Z,75.84
2019-03-31T06:24:53.773Z,75.93
2019-03-31T06:25:54.063Z,75.64
2019-03-31T06:26:54.125Z,74.98
2019-03-31T06:27:54.308Z,74.98
2019-03-31T06:28:54.488Z,74.98
2019-03-31T06:29:54.744Z,74.69
2019-03-31T06:30:54.847Z,74.73
2019-03-31T06:31:55.025Z,73.87
2019-03-31T06:32:55.666Z,72.86
2019-03-31T06:33:55.389Z,72.38
2019-03-31T06:34:55.565Z,71.43
2019-03-31T06:35:55.739Z,71.14
2019-03-31T06:36:55.920Z,71.04
2019-03-31T06:37:56.095Z,71.43
2019-03-31T06:38:56.273Z,71.43
2019-03-31T06:39:56.456Z,70.86
2019-03-31T06:40:56.643Z,70.76
2019-03-31T06:41:56.810Z,70.67
2019-03-31T06:42:56.992Z,70.95
2019-03-31T06:43:57.174Z,70.92
2019-03-31T06:44:57.355Z,71.33
2019-03-31T06:45:57.531Z,71.72
2019-03-31T06:46:57.711Z,72.53
2019-03-31T06:47:57.899Z,73.30
2019-03-31T06:48:58.067Z,73.96
2019-03-31T06:49:58.246Z,73.58
2019-03-31T06:50:58.432Z,72.92
2019-03-31T06:51:58.620Z,72.63
2019-03-31T06:52:58.804Z,72.63
2019-03-31T06:53:58.984Z,74.31
2019-03-31T06:54:59.167Z,74.40
2019-03-31T06:55:59.349Z,76.56
2019-03-31T06:56:59.539Z,77.13
2019-03-31T06:57:59.713Z,77.36
2019-03-31T06:58:59.893Z,75.87
2019-03-31T07:00:00.287Z,74.96
2019-03-31T07:01:00.254Z,73.33
2019-03-31T07:02:03.016Z,71.66
2019-03-31T07:03:00.618Z,70.54
2019-03-31T07:04:00.800Z,69.59
2019-03-31T07:05:01.843Z,68.73
2019-03-31T07:06:01.167Z,68.16
2019-03-31T07:07:01.338Z,68.00
2019-03-31T07:08:02.208Z,67.71
2019-03-31T07:09:01.771Z,66.99
2019-03-31T07:10:01.970Z,65.93
2019-03-31T07:11:02.150Z,65.36
2019-03-31T07:12:02.307Z,65.36
2019-03-31T07:13:02.498Z,65.93
2019-03-31T07:14:02.672Z,66.22
2019-03-31T07:15:02.860Z,67.52
2019-03-31T07:16:03.040Z,67.77
2019-03-31T07:17:03.221Z,68.73
2019-03-31T07:18:03.403Z,69.17
2019-03-31T07:19:03.589Z,70.42
2019-03-31T07:20:03.796Z,70.32
2019-03-31T07:21:04.959Z,71.62
2019-03-31T07:22:04.143Z,72.57
2019-03-31T07:23:04.317Z,73.30
2019-03-31T07:24:04.505Z,74.10
2019-03-31T07:25:04.692Z,74.29
2019-03-31T07:26:04.867Z,72.86
2019-03-31T07:27:05.036Z,72.89
2019-03-31T07:28:05.218Z,71.69
2019-03-31T07:29:05.405Z,70.54
2019-03-31T07:30:07.160Z,69.15
2019-03-31T07:31:05.767Z,68.04
2019-03-31T07:32:06.721Z,67.30
2019-03-31T07:33:06.146Z,66.28
2019-03-31T07:34:06.333Z,65.77
2019-03-31T07:35:17.891Z,64.75
2019-03-31T07:36:06.692Z,64.82
2019-03-31T07:37:06.871Z,65.14
2019-03-31T07:38:07.056Z,64.28
2019-03-31T07:39:07.347Z,64.98
2019-03-31T07:40:07.448Z,64.18
2019-03-31T07:41:13.138Z,65.04
2019-03-31T07:42:07.842Z,65.87
2019-03-31T07:43:07.992Z,65.81
2019-03-31T07:44:08.156Z,66.28
2019-03-31T07:45:08.335Z,65.71
2019-03-31T07:46:08.519Z,65.61
2019-03-31T07:47:08.702Z,65.17
2019-03-31T07:48:08.886Z,63.93
2019-03-31T07:49:09.065Z,63.39
2019-03-31T07:50:09.251Z,63.00
2019-03-31T07:51:09.419Z,62.30
2019-03-31T07:52:09.606Z,63.54
2019-03-31T07:53:09.796Z,63.26
2019-03-31T07:54:09.974Z,64.09
2019-03-31T07:55:10.166Z,64.56
2019-03-31T07:56:10.355Z,64.62
2019-03-31T07:57:10.534Z,66.06
2019-03-31T07:58:10.781Z,66.00
2019-03-31T07:59:10.949Z,66.44
2019-03-31T08:00:11.090Z,68.04
2019-03-31T08:01:11.293Z,69.34
2019-03-31T08:02:11.461Z,71.94
2019-03-31T08:03:11.642Z,74.23
2019-03-31T08:04:11.822Z,73.22
2019-03-31T08:05:12.004Z,71.78
2019-03-31T08:06:12.185Z,71.98
2019-03-31T08:07:12.376Z,71.59
2019-03-31T08:08:12.565Z,71.82
2019-03-31T08:09:12.740Z,71.34
2019-03-31T08:10:12.906Z,70.77
2019-03-31T08:11:13.090Z,71.06
2019-03-31T08:12:13.276Z,70.87
2019-03-31T08:13:14.447Z,71.15
2019-03-31T08:14:13.639Z,71.59
2019-03-31T08:15:13.816Z,72.93
2019-03-31T08:16:14.002Z,72.64
2019-03-31T08:17:14.182Z,73.08
2019-03-31T08:18:14.363Z,73.79
2019-03-31T08:19:14.548Z,74.71
2019-03-31T08:20:14.725Z,74.52
2019-03-31T08:21:14.919Z,74.55
2019-03-31T08:22:15.091Z,74.08
2019-03-31T08:23:15.278Z,74.17
2019-03-31T08:24:15.458Z,74.08
2019-03-31T08:25:15.634Z,74.37
2019-03-31T08:26:15.820Z,73.88
2019-03-31T08:27:15.999Z,74.37
2019-03-31T08:28:16.188Z,74.37
2019-03-31T08:29:16.360Z,74.93
2019-03-31T08:30:16.569Z,74.52
2019-03-31T08:31:16.718Z,76.33
2019-03-31T08:32:16.902Z,76.33
2019-03-31T08:33:17.085Z,75.89
2019-03-31T08:34:17.269Z,75.51
2019-03-31T08:35:17.442Z,75.13
2019-03-31T08:36:17.624Z,74.40
2019-03-31T08:37:17.812Z,72.72
2019-03-31T08:38:17.992Z,71.92
2019-03-31T08:39:18.165Z,72.87
2019-03-31T08:40:18.347Z,71.38
2019-03-31T08:41:18.541Z,71.63
2019-03-31T08:42:18.719Z,71.00
2019-03-31T08:43:18.889Z,71.38
2019-03-31T08:44:19.069Z,71.34
2019-03-31T08:45:19.253Z,70.46
2019-03-31T08:46:19.433Z,68.87
2019-03-31T08:47:19.621Z,67.85
2019-03-31T08:48:19.796Z,67.05
2019-03-31T08:49:19.977Z,68.10
2019-03-31T08:50:20.157Z,68.80
2019-03-31T08:51:20.336Z,71.67
2019-03-31T08:52:20.520Z,70.17
2019-03-31T08:53:20.705Z,71.72
2019-03-31T08:54:20.880Z,72.72
2019-03-31T08:55:21.063Z,70.75
2019-03-31T08:56:21.249Z,68.71
2019-03-31T08:57:21.433Z,67.41
2019-03-31T08:58:21.619Z,65.91
2019-03-31T08:59:21.806Z,64.47
2019-03-31T09:00:21.988Z,63.80
2019-03-31T09:01:22.170Z,65.71
2019-03-31T09:02:22.369Z,67.97
2019-03-31T09:03:22.546Z,70.23
2019-03-31T09:04:22.738Z,70.75
2019-03-31T09:05:22.913Z,70.71
2019-03-31T09:06:23.091Z,71.42
2019-03-31T09:07:23.268Z,71.13
2019-03-31T09:08:23.451Z,69.19
2019-03-31T09:09:23.630Z,68.13
2019-03-31T09:10:23.824Z,67.21
2019-03-31T09:11:24.004Z,66.45
2019-03-31T09:12:24.177Z,65.81
2019-03-31T09:13:24.368Z,65.52
2019-03-31T09:14:24.548Z,65.49
2019-03-31T09:15:24.736Z,65.91
2019-03-31T09:16:24.914Z,64.95
2019-03-31T09:17:25.099Z,64.85
2019-03-31T09:18:25.273Z,64.95
2019-03-31T09:19:25.462Z,65.49
2019-03-31T09:20:27.831Z,66.45
2019-03-31T09:21:25.887Z,67.94
2019-03-31T09:22:26.064Z,67.88
2019-03-31T09:23:26.252Z,67.31
2019-03-31T09:24:26.432Z,67.50
2019-03-31T09:25:26.607Z,67.11
2019-03-31T09:26:26.790Z,66.93
2019-03-31T09:27:26.981Z,67.21
2019-03-31T09:28:27.152Z,67.50
2019-03-31T09:29:27.349Z,67.11
2019-03-31T09:30:29.452Z,67.41
2019-03-31T09:31:27.655Z,67.88
2019-03-31T09:32:30.244Z,67.41
2019-03-31T09:33:28.056Z,67.11
2019-03-31T09:34:28.241Z,67.69
2019-03-31T09:35:29.622Z,67.34
2019-03-31T09:36:29.269Z,67.02
2019-03-31T09:37:28.817Z,67.11
2019-03-31T09:38:28.999Z,66.93
2019-03-31T09:39:29.194Z,67.41
2019-03-31T09:40:29.365Z,67.44
2019-03-31T09:41:29.661Z,66.58
2019-03-31T09:42:29.716Z,66.89
2019-03-31T09:43:29.903Z,70.01
2019-03-31T09:44:30.479Z,70.05
2019-03-31T09:45:30.257Z,69.76
2019-03-31T09:46:31.836Z,69.29
2019-03-31T09:47:30.644Z,69.29
2019-03-31T09:48:30.823Z,68.90
2019-03-31T09:49:30.996Z,68.94
2019-03-31T09:50:31.178Z,68.84
2019-03-31T09:51:31.361Z,69.13
2019-03-31T09:52:31.546Z,67.98
2019-03-31T09:53:31.720Z,68.27
2019-03-31T09:54:31.903Z,68.36
2019-03-31T09:55:32.781Z,67.91
2019-03-31T09:56:32.326Z,67.34
2019-03-31T09:57:32.509Z,67.79
2019-03-31T09:58:32.701Z,68.07
2019-03-31T09:59:32.867Z,67.79
2019-03-31T10:00:33.051Z,69.09
2019-03-31T10:01:33.238Z,70.53
2019-03-31T10:02:33.420Z,70.85
2019-03-31T10:03:33.592Z,69.03
2019-03-31T10:04:33.774Z,68.01
2019-03-31T10:05:33.959Z,68.21
2019-03-31T10:06:34.159Z,67.44
2019-03-31T10:07:34.311Z,67.15
2019-03-31T10:08:34.496Z,66.67
2019-03-31T10:09:34.677Z,67.69
2019-03-31T10:10:34.857Z,68.84
2019-03-31T10:11:35.047Z,69.51
2019-03-31T10:12:36.427Z,69.13
2019-03-31T10:13:35.354Z,69.13
2019-03-31T10:14:35.530Z,69.23
2019-03-31T10:15:35.714Z,68.01
2019-03-31T10:16:35.896Z,67.82
2019-03-31T10:17:36.093Z,67.34
2019-03-31T10:18:36.269Z,66.45
2019-03-31T10:19:36.454Z,65.43
2019-03-31T10:20:36.635Z,64.25
2019-03-31T10:21:36.828Z,64.09
2019-03-31T10:22:37.004Z,63.99
2019-03-31T10:23:37.181Z,63.32
2019-03-31T10:24:37.361Z,62.58
2019-03-31T10:25:37.546Z,62.55
2019-03-31T10:26:37.726Z,62.48
2019-03-31T10:27:37.909Z,62.84
2019-03-31T10:28:38.145Z,63.32
2019-03-31T10:29:38.294Z,63.60
2019-03-31T10:30:38.479Z,63.22
2019-03-31T10:31:38.655Z,63.51
2019-03-31T10:32:40.032Z,63.12
2019-03-31T10:33:39.096Z,63.12
2019-03-31T10:34:39.272Z,63.60
2019-03-31T10:35:39.454Z,63.32
2019-03-31T10:36:44.581Z,63.12
2019-03-31T10:37:39.814Z,63.60
2019-03-31T10:38:39.996Z,63.51
2019-03-31T10:39:40.183Z,63.60
2019-03-31T10:40:40.372Z,63.51
2019-03-31T10:41:40.545Z,63.60
2019-03-31T10:42:40.730Z,63.51
2019-03-31T10:43:40.913Z,64.25
2019-03-31T10:44:41.104Z,64.28
2019-03-31T10:45:41.290Z,63.99
2019-03-31T10:46:41.499Z,63.89
2019-03-31T10:47:41.652Z,63.99
2019-03-31T10:48:41.841Z,64.05
2019-03-31T10:49:42.020Z,64.09
2019-03-31T10:50:42.203Z,63.42
2019-03-31T10:51:42.404Z,63.03
2019-03-31T10:52:42.564Z,62.77
2019-03-31T10:53:42.753Z,62.39
2019-03-31T10:54:43.788Z,62.10
2019-03-31T10:55:43.133Z,62.19
2019-03-31T10:56:43.279Z,61.72
2019-03-31T10:57:43.461Z,61.91
2019-03-31T10:58:43.634Z,62.74
2019-03-31T10:59:43.819Z,63.38
2019-03-31T11:00:45.006Z,64.34
2019-03-31T11:01:44.227Z,64.43
2019-03-31T11:02:44.490Z,65.01
2019-03-31T11:03:44.604Z,65.55
2019-03-31T11:04:44.772Z,65.94
2019-03-31T11:05:44.957Z,65.26
2019-03-31T11:06:58.276Z,65.36
2019-03-31T11:07:46.560Z,65.39
2019-03-31T11:08:45.500Z,65.11
2019-03-31T11:09:47.300Z,65.36
2019-03-31T11:11:45.988Z,66.13
2019-03-31T11:12:46.160Z,65.84
2019-03-31T11:13:46.344Z,66.42
2019-03-31T11:14:46.527Z,66.22
2019-03-31T11:15:46.722Z,66.42
2019-03-31T11:16:46.889Z,66.38
2019-03-31T11:17:47.078Z,66.32
2019-03-31T11:18:47.252Z,66.22
2019-03-31T11:19:47.442Z,66.38
2019-03-31T11:20:47.611Z,66.38
2019-03-31T11:21:47.792Z,66.67
2019-03-31T11:22:47.977Z,67.54
2019-03-31T11:23:48.157Z,67.25
2019-03-31T11:24:48.339Z,67.34
2019-03-31T11:25:48.513Z,67.25
2019-03-31T11:26:48.690Z,67.63
2019-03-31T11:27:48.873Z,67.34
2019-03-31T11:28:49.055Z,67.54
2019-03-31T11:29:49.236Z,67.44
2019-03-31T11:30:50.621Z,67.25
2019-03-31T11:31:49.542Z,66.86
2019-03-31T11:32:50.297Z,66.32
2019-03-31T11:33:49.857Z,66.32
2019-03-31T11:34:50.043Z,66.22
2019-03-31T11:35:50.223Z,66.22
2019-03-31T11:36:50.408Z,65.65
2019-03-31T11:37:50.579Z,65.39
2019-03-31T11:38:50.782Z,64.98
2019-03-31T11:39:50.931Z,65.26
2019-03-31T11:40:51.104Z,65.84
2019-03-31T11:41:52.308Z,66.13
2019-03-31T11:42:52.204Z,66.38
2019-03-31T11:43:51.643Z,66.22
2019-03-31T11:44:51.813Z,65.65
2019-03-31T11:45:51.999Z,65.55
2019-03-31T11:46:52.189Z,65.84
2019-03-31T11:47:52.364Z,65.75
2019-03-31T11:48:52.544Z,64.79
2019-03-31T11:49:52.722Z,64.92
2019-03-31T11:50:52.908Z,63.48
2019-03-31T11:51:53.088Z,63.38
2019-03-31T11:52:53.283Z,62.62
2019-03-31T11:53:53.461Z,62.90
2019-03-31T11:54:53.644Z,64.22
2019-03-31T11:55:53.816Z,64.28
2019-03-31T11:56:54.005Z,65.71
2019-03-31T11:57:54.186Z,65.81
2019-03-31T11:58:54.364Z,66.03
2019-03-31T11:59:54.550Z,65.01
2019-03-31T12:00:54.731Z,63.96
2019-03-31T12:01:54.910Z,64.02
2019-03-31T12:02:55.091Z,64.79
2019-03-31T12:03:55.273Z,64.69
2019-03-31T12:04:55.454Z,64.98
2019-03-31T12:05:55.648Z,64.56
2019-03-31T12:06:55.818Z,66.54
2019-03-31T12:07:56.002Z,67.50
2019-03-31T12:08:56.182Z,66.96
2019-03-31T12:09:56.362Z,66.45
2019-03-31T12:10:56.543Z,66.96
2019-03-31T12:11:56.724Z,67.15
2019-03-31T12:12:56.909Z,67.63
2019-03-31T12:13:57.091Z,66.96
2019-03-31T12:15:00.644Z,66.48
2019-03-31T12:15:58.320Z,66.29
2019-03-31T12:16:57.628Z,66.42
2019-03-31T12:17:57.811Z,66.32
2019-03-31T12:18:58.845Z,64.89
2019-03-31T12:19:58.150Z,64.69
2019-03-31T12:20:58.340Z,64.15
2019-03-31T12:21:58.523Z,63.96
2019-03-31T12:22:58.707Z,64.02
2019-03-31T12:23:58.894Z,64.50
2019-03-31T12:24:59.061Z,65.26
2019-03-31T12:25:59.246Z,65.55
2019-03-31T12:26:59.424Z,65.46
2019-03-31T12:27:59.609Z,66.00
2019-03-31T12:28:59.785Z,66.19
2019-03-31T12:29:59.968Z,66.38
2019-03-31T12:31:00.149Z,67.15
2019-03-31T12:32:00.325Z,67.88
2019-03-31T12:33:00.546Z,67.72
2019-03-31T12:34:00.684Z,67.54
2019-03-31T12:35:00.863Z,67.54
2019-03-31T12:36:01.046Z,67.34
2019-03-31T12:37:01.238Z,66.19
2019-03-31T12:38:01.405Z,66.09
2019-03-31T12:39:01.587Z,65.75
2019-03-31T12:40:01.769Z,66.19
2019-03-31T12:41:01.953Z,66.00
2019-03-31T12:42:02.144Z,66.19
2019-03-31T12:43:02.314Z,66.29
2019-03-31T12:44:02.519Z,66.67
2019-03-31T12:45:02.703Z,65.91
2019-03-31T12:46:02.858Z,65.75
2019-03-31T12:47:03.045Z,65.36
2019-03-31T12:48:03.229Z,64.89
2019-03-31T12:49:03.400Z,65.08
2019-03-31T12:50:03.602Z,64.89
2019-03-31T12:51:03.752Z,65.17
2019-03-31T12:52:03.936Z,65.46
2019-03-31T12:53:04.116Z,65.23
2019-03-31T12:54:04.302Z,65.55
2019-03-31T12:55:04.481Z,65.05
2019-03-31T12:56:04.657Z,65.14
2019-03-31T12:57:04.858Z,65.55
2019-03-31T12:58:06.839Z,65.81
2019-03-31T12:59:05.283Z,66.19
2019-03-31T13:00:05.439Z,66.58
2019-03-31T13:01:07.271Z,66.29